Time;durP1;ratioP1;P1;durP2;ratioP2;P2;SDS_P1;SDS_P2;PMS_P1;PMS_P2;Temp;Humidity;BMP_temperature;BMP_pressure;BME280_temperature;BME280_humidity;BME280_pressure;Samples;Min_cycle;Max_cycle;Signal;HPM_P1;HPM_P2
2023/08/12 00:01:33;;;;;;;6.85;3.58;;;29.90;25.90;;;;;;20830412;28;20113;-55
2023/08/12 00:11:37;;;;;;;4.68;3.88;;;29.90;25.30;;;;;;20829908;28;20485;-56
2023/08/12 00:21:38;;;;;;;7.25;3.72;;;29.90;25.40;;;;;;20828464;28;20048;-58
2023/08/12 00:31:39;;;;;;;4.70;3.13;;;29.90;25.70;;;;;;20828242;28;20503;-55
2023/08/12 00:41:39;;;;;;;8.85;3.10;;;29.90;25.40;;;;;;20827943;28;20077;-56
2023/08/12 00:51:43;;;;;;;5.57;3.28;;;29.80;26.00;;;;;;20828881;28;20049;-57
2023/08/12 01:01:44;;;;;;;6.90;2.80;;;29.60;26.80;;;;;;20832000;28;20072;-57
2023/08/12 01:11:57;;;;;;;5.32;3.13;;;29.40;27.10;;;;;;20842556;28;20045;-58
2023/08/12 01:22:01;;;;;;;7.38;2.92;;;29.10;27.30;;;;;;20840542;28;20045;-57
2023/08/12 01:32:25;;;;;;;6.80;3.20;;;29.00;27.60;;;;;;20839818;28;20057;-56
2023/08/12 01:42:29;;;;;;;5.13;2.63;;;28.70;28.20;;;;;;20840322;28;20045;-56
2023/08/12 01:52:30;;;;;;;4.88;2.45;;;28.40;27.90;;;;;;20838395;28;20049;-56
2023/08/12 02:02:30;;;;;;;5.85;2.17;;;28.40;28.10;;;;;;20837358;28;20048;-55
2023/08/12 02:12:31;;;;;;;7.95;2.42;;;28.30;28.40;;;;;;20837664;28;20490;-56
2023/08/12 02:22:32;;;;;;;6.25;2.60;;;28.40;28.70;;;;;;20837143;28;20406;-57
2023/08/12 02:32:32;;;;;;;;;;;28.60;28.80;;;;;;20835583;28;20053;-55
2023/08/12 02:42:33;;;;;;;7.22;2.95;;;28.50;28.80;;;;;;20835458;28;19928;-56
2023/08/12 02:52:34;;;;;;;7.03;3.20;;;28.30;29.40;;;;;;20833573;28;20049;-58
2023/08/12 03:02:34;;;;;;;;;;;28.20;29.90;;;;;;20834115;28;20099;-57
2023/08/12 03:12:35;;;;;;;3.75;2.60;;;28.00;30.00;;;;;;20831938;28;20007;-56
2023/08/12 03:22:37;;;;;;;5.32;2.70;;;27.80;30.10;;;;;;20832173;28;20061;-57
2023/08/12 03:32:38;;;;;;;6.05;2.85;;;27.60;30.70;;;;;;20831292;28;20541;-56
2023/08/12 03:42:38;;;;;;;5.50;2.80;;;27.30;30.90;;;;;;20831654;28;20077;-56
2023/08/12 03:52:39;;;;;;;3.87;2.40;;;27.00;30.80;;;;;;20831317;28;20049;-56
2023/08/12 04:02:40;;;;;;;5.90;2.63;;;26.70;30.90;;;;;;20830992;28;20414;-56
2023/08/12 04:12:41;;;;;;;7.40;2.87;;;26.60;30.90;;;;;;20829364;28;20202;-56
2023/08/12 04:22:42;;;;;;;5.72;2.20;;;26.30;31.00;;;;;;20830257;28;20053;-56
2023/08/12 04:32:43;;;;;;;6.07;2.20;;;26.30;30.90;;;;;;20829373;28;20061;-56
2023/08/12 04:42:44;;;;;;;5.30;2.77;;;26.30;30.60;;;;;;20844047;28;20053;-57
2023/08/12 04:52:46;;;;;;;7.60;3.00;;;26.30;30.50;;;;;;20842731;28;20132;-57
2023/08/12 05:02:46;;;;;;;5.95;2.60;;;26.30;30.60;;;;;;20843649;28;20045;-56
2023/08/12 05:12:48;;;;;;;6.20;2.17;;;26.10;31.20;;;;;;20841300;28;20047;-56
2023/08/12 05:22:49;;;;;;;5.70;2.47;;;26.10;31.60;;;;;;20841984;28;20073;-56
2023/08/12 05:32:50;;;;;;;7.43;2.67;;;26.10;31.80;;;;;;20840038;28;20049;-56
2023/08/12 05:42:51;;;;;;;6.47;2.97;;;26.10;32.10;;;;;;20840614;28;20088;-56
2023/08/12 05:52:51;;;;;;;5.57;2.57;;;26.00;32.60;;;;;;20838665;28;20041;-56
2023/08/12 06:02:52;;;;;;;9.50;3.23;;;25.90;33.20;;;;;;20838258;28;20050;-56
2023/08/12 06:12:53;;;;;;;9.07;4.13;;;25.70;33.30;;;;;;20837345;28;20399;-57
2023/08/12 06:22:54;;;;;;;9.83;2.73;;;25.70;33.30;;;;;;20836105;28;20053;-57
2023/08/12 06:32:55;;;;;;;8.23;2.90;;;25.90;33.50;;;;;;20834108;28;20137;-57
2023/08/12 06:42:55;;;;;;;8.50;2.97;;;26.20;33.40;;;;;;20834414;28;20089;-56
2023/08/12 06:52:56;;;;;;;7.60;2.70;;;26.60;33.30;;;;;;20832672;28;20425;-57
2023/08/12 07:02:57;;;;;;;15.97;3.23;;;27.20;32.90;;;;;;20831041;28;20081;-56
2023/08/12 07:12:58;;;;;;;6.40;2.83;;;27.60;32.70;;;;;;20832607;28;20080;-56
2023/08/12 07:22:58;;;;;;;;;;;28.10;32.10;;;;;;20832418;28;20399;-55
2023/08/12 07:32:59;;;;;;;9.03;2.80;;;28.80;32.40;;;;;;20829833;28;19924;-57
2023/08/12 07:43:00;;;;;;;6.00;3.35;;;29.30;34.40;;;;;;20830584;28;20067;-57
2023/08/12 07:53:01;;;;;;;8.75;3.47;;;29.90;35.20;;;;;;20830422;28;20071;-57
2023/08/12 08:03:01;;;;;;;7.30;3.28;;;30.30;35.90;;;;;;20830315;28;20045;-56
2023/08/12 08:13:02;;;;;;;5.95;2.90;;;30.40;35.30;;;;;;20837527;28;20052;-56
2023/08/12 08:23:03;;;;;;;9.43;3.17;;;30.60;35.80;;;;;;20845065;28;20517;-56
2023/08/12 08:33:05;;;;;;;7.88;3.30;;;30.90;35.80;;;;;;20842695;28;20068;-56
2023/08/12 08:43:08;;;;;;;8.77;3.95;;;31.00;36.80;;;;;;20843444;28;20053;-56
2023/08/12 08:53:09;;;;;;;7.90;4.50;;;31.10;36.90;;;;;;20842699;28;20048;-58
2023/08/12 09:03:12;;;;;;;11.90;4.38;;;31.20;35.90;;;;;;20840779;28;20041;-56
2023/08/12 09:13:14;;;;;;;11.75;5.28;;;31.30;35.70;;;;;;20841749;28;20053;-57
2023/08/12 09:23:15;;;;;;;12.93;6.80;;;31.60;35.70;;;;;;20840052;28;20111;-56
2023/08/12 09:33:24;;;;;;;12.77;7.28;;;31.80;35.10;;;;;;20841039;28;20089;-57
2023/08/12 09:43:28;;;;;;;10.73;4.20;;;32.00;35.30;;;;;;20839863;28;20087;-57
2023/08/12 09:53:28;;;;;;;11.15;3.30;;;32.20;34.40;;;;;;20837075;28;20046;-57
2023/08/12 10:03:30;;;;;;;13.20;3.72;;;32.30;33.70;;;;;;20837613;28;20525;-58
2023/08/12 10:13:31;;;;;;;10.02;4.10;;;32.30;33.50;;;;;;20872227;28;20053;-57
2023/08/12 10:23:32;;;;;;;7.47;3.03;;;32.30;33.50;;;;;;20918795;28;20045;-56
2023/08/12 10:33:40;;;;;;;10.07;3.25;;;32.50;32.70;;;;;;20916170;28;20181;-56
2023/08/12 10:43:54;;;;;;;41.55;6.97;;;32.60;32.20;;;;;;20916180;28;20049;-56
2023/08/12 10:54:30;;;;;;;9.43;3.20;;;32.70;33.40;;;;;;20916467;28;20052;-57
2023/08/12 11:04:37;;;;;;;10.18;3.75;;;32.60;32.30;;;;;;20915957;28;20498;-57
2023/08/12 11:14:49;;;;;;;7.45;3.17;;;32.90;31.80;;;;;;20913520;28;20040;-57
2023/08/12 11:24:50;;;;;;;10.80;4.38;;;33.10;31.20;;;;;;20913046;28;20128;-57
2023/08/12 11:34:51;;;;;;;8.30;3.97;;;33.40;30.80;;;;;;20912537;28;20061;-57
2023/08/12 11:44:52;;;;;;;7.72;3.47;;;33.30;30.50;;;;;;20912440;28;20155;-57
2023/08/12 11:54:53;;;;;;;7.63;3.10;;;33.50;30.10;;;;;;20912746;28;20132;-56
2023/08/12 12:04:54;;;;;;;8.00;2.78;;;33.80;28.50;;;;;;20912579;28;20084;-56
2023/08/12 12:14:56;;;;;;;8.63;3.28;;;34.00;28.00;;;;;;20910749;28;20044;-57
2023/08/12 12:25:06;;;;;;;11.13;3.28;;;34.00;27.50;;;;;;20912033;28;20041;-57
2023/08/12 12:35:07;;;;;;;6.90;3.03;;;34.10;27.70;;;;;;20910353;28;20064;-57
2023/08/12 12:45:09;;;;;;;7.65;3.50;;;34.50;27.00;;;;;;20911695;28;20056;-58
2023/08/12 12:55:09;;;;;;;5.32;2.42;;;34.60;26.60;;;;;;20912698;28;20040;-56
2023/08/12 13:05:10;;;;;;;6.07;2.92;;;35.10;24.50;;;;;;20925788;28;20093;-57
2023/08/12 13:15:11;;;;;;;9.38;3.15;;;35.30;24.60;;;;;;20925048;28;20074;-56
2023/08/12 13:25:12;;;;;;;6.40;3.50;;;35.40;23.00;;;;;;20924409;28;20045;-57
2023/08/12 13:35:13;;;;;;;7.68;3.00;;;35.70;21.90;;;;;;20922003;28;20063;-57
2023/08/12 13:45:14;;;;;;;5.38;2.47;;;35.80;22.00;;;;;;20921411;28;20048;-56
2023/08/12 13:55:14;;;;;;;6.38;2.92;;;35.80;22.20;;;;;;20999324;28;20083;-57
2023/08/12 14:05:15;;;;;;;15.77;9.85;;;35.80;22.20;;;;;;21003460;28;20048;-56
2023/08/12 14:15:16;;;;;;;5.78;2.33;;;36.00;21.70;;;;;;21002659;28;20044;-57
2023/08/12 14:25:17;;;;;;;5.05;2.28;;;36.20;22.00;;;;;;21001077;28;20434;-57
2023/08/12 14:35:17;;;;;;;6.75;3.00;;;36.40;21.70;;;;;;20999233;28;20091;-55
2023/08/12 14:45:18;;;;;;;6.97;2.45;;;36.70;21.00;;;;;;21000343;28;20473;-56
2023/08/12 14:55:19;;;;;;;4.40;1.95;;;36.60;21.00;;;;;;20999584;28;20516;-57
2023/08/12 15:05:20;;;;;;;6.00;2.20;;;37.10;20.90;;;;;;20998755;28;20146;-57
2023/08/12 15:15:20;;;;;;;5.72;2.25;;;36.70;20.90;;;;;;20997790;28;20373;-56
2023/08/12 15:25:21;;;;;;;6.10;3.25;;;36.70;21.40;;;;;;20996660;28;20036;-56
2023/08/12 15:35:23;;;;;;;6.95;2.25;;;36.80;21.50;;;;;;20997685;28;20048;-56
2023/08/12 15:45:23;;;;;;;4.25;2.05;;;37.00;21.10;;;;;;20995201;28;20051;-57
2023/08/12 15:55:24;;;;;;;3.72;2.25;;;36.80;21.30;;;;;;20995628;28;20036;-57
2023/08/12 16:05:25;;;;;;;5.13;2.53;;;36.70;21.20;;;;;;20994635;28;20103;-56
2023/08/12 16:15:26;;;;;;;5.38;2.25;;;36.80;21.10;;;;;;20995161;28;20098;-56
2023/08/12 16:25:26;;;;;;;8.63;6.35;;;36.70;21.20;;;;;;20994854;28;20072;-56
2023/08/12 16:35:27;;;;;;;4.00;2.08;;;36.80;21.30;;;;;;21004447;28;20110;-55
2023/08/12 16:45:28;;;;;;;5.35;2.58;;;36.80;21.30;;;;;;21009246;28;20505;-56
2023/08/12 16:55:29;;;;;;;8.90;3.20;;;36.60;21.60;;;;;;21007459;28;20045;-58
2023/08/12 17:05:29;;;;;;;6.20;2.22;;;36.80;20.40;;;;;;21007893;28;20045;-57
2023/08/12 17:15:30;;;;;;;6.38;2.00;;;36.70;20.90;;;;;;21005886;28;20144;-58
2023/08/12 17:25:31;;;;;;;5.70;2.53;;;36.60;20.30;;;;;;21006348;28;20470;-57
2023/08/12 17:35:32;;;;;;;4.50;2.50;;;36.40;21.00;;;;;;21004571;28;20137;-56
2023/08/12 17:45:32;;;;;;;3.33;1.80;;;36.30;20.90;;;;;;21004596;28;20046;-56
2023/08/12 17:55:33;;;;;;;5.25;2.10;;;36.30;20.80;;;;;;21004272;28;20329;-58
2023/08/12 18:05:34;;;;;;;10.83;2.70;;;36.20;21.00;;;;;;21003421;28;20048;-56
2023/08/12 18:15:35;;;;;;;6.70;2.40;;;36.10;21.50;;;;;;21001845;28;20420;-58
2023/08/12 18:25:35;;;;;;;7.25;2.50;;;35.90;21.60;;;;;;21001582;28;20044;-57
2023/08/12 18:35:36;;;;;;;5.20;2.33;;;35.90;21.50;;;;;;20999382;28;20052;-57
2023/08/12 18:45:37;;;;;;;5.80;3.58;;;35.60;21.60;;;;;;21000114;28;20049;-56
2023/08/12 18:55:38;;;;;;;6.47;3.05;;;35.50;21.70;;;;;;20999522;28;20044;-58
2023/08/12 19:05:42;;;;;;;5.87;2.53;;;35.30;22.10;;;;;;20999070;28;20101;-57
2023/08/12 19:15:43;;;;;;;7.40;3.53;;;35.10;22.50;;;;;;20998019;28;20297;-58
2023/08/12 19:25:44;;;;;;;10.27;3.72;;;34.90;22.90;;;;;;20997698;28;20047;-57
2023/08/12 19:35:45;;;;;;;6.90;3.65;;;34.70;23.00;;;;;;20998256;28;20084;-56
2023/08/12 19:45:46;;;;;;;6.38;2.78;;;34.50;23.40;;;;;;20996491;28;20079;-58
2023/08/12 19:55:47;;;;;;;7.10;3.10;;;34.40;23.60;;;;;;20995294;28;20040;-57
2023/08/12 20:05:48;;;;;;;7.95;3.25;;;34.20;24.30;;;;;;20998856;28;20482;-58
2023/08/12 20:15:51;;;;;;;7.85;2.72;;;34.00;24.50;;;;;;21012469;28;20041;-57
2023/08/12 20:25:52;;;;;;;8.27;2.42;;;33.90;24.60;;;;;;21011769;28;20461;-58
2023/08/12 20:35:53;;;;;;;7.93;2.47;;;33.80;24.70;;;;;;21009441;28;20040;-57
2023/08/12 20:45:53;;;;;;;8.63;2.60;;;33.70;24.80;;;;;;21010179;28;20093;-58
2023/08/12 20:55:54;;;;;;;5.47;2.40;;;33.60;25.10;;;;;;21009425;28;20118;-57
2023/08/12 21:05:55;;;;;;;5.00;2.40;;;33.50;25.50;;;;;;21007535;28;20127;-57
2023/08/12 21:15:56;;;;;;;5.72;2.70;;;33.40;25.80;;;;;;21006331;28;20490;-58
2023/08/12 21:25:56;;;;;;;5.38;2.50;;;33.20;26.00;;;;;;21006796;28;20068;-56
2023/08/12 21:35:57;;;;;;;8.80;2.58;;;33.10;26.20;;;;;;21007415;28;20123;-57
2023/08/12 21:45:58;;;;;;;7.22;2.13;;;33.00;26.50;;;;;;21003904;28;20158;-58
2023/08/12 21:55:58;;;;;;;9.03;2.67;;;32.80;26.50;;;;;;21002633;28;20494;-57
2023/08/12 22:05:59;;;;;;;7.57;2.45;;;32.60;26.80;;;;;;21001374;28;20347;-57
2023/08/12 22:16:00;;;;;;;5.50;2.05;;;32.40;27.00;;;;;;21002061;28;20098;-57
2023/08/12 22:26:01;;;;;;;7.40;2.67;;;32.10;27.30;;;;;;21001210;28;20433;-58
2023/08/12 22:36:03;;;;;;;4.07;1.80;;;31.90;27.50;;;;;;21000585;28;20041;-58
2023/08/12 22:46:03;;;;;;;4.03;2.03;;;31.60;27.90;;;;;;21000065;28;20048;-57
2023/08/12 22:56:04;;;;;;;12.50;3.50;;;31.50;28.20;;;;;;20999225;28;20094;-56
2023/08/12 23:06:05;;;;;;;8.60;3.20;;;31.40;28.70;;;;;;20998264;28;20140;-58
2023/08/12 23:16:06;;;;;;;6.90;2.95;;;31.10;29.60;;;;;;20997299;28;20040;-57
2023/08/12 23:26:07;;;;;;;6.95;2.80;;;30.90;30.10;;;;;;20996960;28;20349;-55
2023/08/12 23:36:07;;;;;;;5.82;3.10;;;30.60;30.50;;;;;;20996412;28;20474;-56
2023/08/12 23:46:08;;;;;;;8.93;2.60;;;30.60;30.20;;;;;;20995714;28;20136;-57
2023/08/12 23:56:09;;;;;;;10.82;5.43;;;30.60;30.20;;;;;;20996205;28;20072;-56
